sensor_id;sensor_type;location;lat;lon;timestamp;temperature;humidity
41310;DHT22;27057;51.438;-0.010;2023-06-22T09:59:16;24.30;99.90
41310;DHT22;27057;51.438;-0.010;2023-06-22T10:01:45;24.80;99.90
41310;DHT22;27057;51.438;-0.010;2023-06-22T10:04:12;24.50;99.90
41310;DHT22;27057;51.438;-0.010;2023-06-22T10:06:40;24.50;99.90
41310;DHT22;27057;51.438;-0.010;2023-06-22T10:09:08;24.50;99.90
41310;DHT22;27057;51.438;-0.010;2023-06-22T10:11:35;24.50;99.90
41310;DHT22;27057;51.438;-0.010;2023-06-22T10:14:04;24.70;99.90
41310;DHT22;27057;51.438;-0.010;2023-06-22T10:16:31;24.90;99.90
41310;DHT22;27057;51.438;-0.010;2023-06-22T10:18:59;24.90;99.90
41310;DHT22;27057;51.438;-0.010;2023-06-22T10:21:27;24.80;99.90
41310;DHT22;27057;51.438;-0.010;2023-06-22T10:23:55;24.70;99.90
41310;DHT22;27057;51.438;-0.010;2023-06-22T10:26:23;24.80;99.90
41310;DHT22;27057;51.438;-0.010;2023-06-22T10:28:50;25.00;99.90
41310;DHT22;27057;51.438;-0.010;2023-06-22T10:31:33;25.20;99.90
41310;DHT22;27057;51.438;-0.010;2023-06-22T10:34:01;25.30;99.90
41310;DHT22;27057;51.438;-0.010;2023-06-22T10:36:28;25.30;99.90
41310;DHT22;27057;51.438;-0.010;2023-06-22T10:38:56;25.40;99.90
41310;DHT22;27057;51.438;-0.010;2023-06-22T10:41:26;25.60;99.90
41310;DHT22;27057;51.438;-0.010;2023-06-22T10:43:56;25.90;99.90
41310;DHT22;27057;51.438;-0.010;2023-06-22T10:46:27;25.90;99.90
41310;DHT22;27057;51.438;-0.010;2023-06-22T10:48:55;25.90;99.90
41310;DHT22;27057;51.438;-0.010;2023-06-22T10:51:24;25.70;99.90
41310;DHT22;27057;51.438;-0.010;2023-06-22T10:53:52;25.60;99.90
41310;DHT22;27057;51.438;-0.010;2023-06-22T10:56:20;25.60;99.90
41310;DHT22;27057;51.438;-0.010;2023-06-22T10:58:47;25.90;99.90
41310;DHT22;27057;51.438;-0.010;2023-06-22T11:01:14;26.10;99.90
41310;DHT22;27057;51.438;-0.010;2023-06-22T11:04:01;26.30;99.90
41310;DHT22;27057;51.438;-0.010;2023-06-22T11:06:28;26.50;99.90
41310;DHT22;27057;51.438;-0.010;2023-06-22T11:08:56;26.50;99.90
41310;DHT22;27057;51.438;-0.010;2023-06-22T11:11:33;26.60;99.90
41310;DHT22;27057;51.438;-0.010;2023-06-22T11:14:00;26.80;99.90
41310;DHT22;27057;51.438;-0.010;2023-06-22T11:16:28;27.00;99.90
41310;DHT22;27057;51.438;-0.010;2023-06-22T11:18:55;27.20;99.90
41310;DHT22;27057;51.438;-0.010;2023-06-22T11:21:23;28.10;99.90
41310;DHT22;27057;51.438;-0.010;2023-06-22T11:23:50;27.70;99.90
41310;DHT22;27057;51.438;-0.010;2023-06-22T11:26:17;27.90;99.90
41310;DHT22;27057;51.438;-0.010;2023-06-22T11:28:45;27.80;99.90
41310;DHT22;27057;51.438;-0.010;2023-06-22T11:31:12;27.60;99.90
41310;DHT22;27057;51.438;-0.010;2023-06-22T11:33:52;27.40;99.90
41310;DHT22;27057;51.438;-0.010;2023-06-22T11:36:20;27.00;99.90
41310;DHT22;27057;51.438;-0.010;2023-06-22T11:38:47;26.90;99.70
41310;DHT22;27057;51.438;-0.010;2023-06-22T11:41:15;26.90;99.90
41310;DHT22;27057;51.438;-0.010;2023-06-22T11:43:42;27.10;99.90
41310;DHT22;27057;51.438;-0.010;2023-06-22T11:46:10;27.40;99.90
41310;DHT22;27057;51.438;-0.010;2023-06-22T11:48:37;27.80;99.90
41310;DHT22;27057;51.438;-0.010;2023-06-22T11:51:05;28.10;99.90
41310;DHT22;27057;51.438;-0.010;2023-06-22T11:53:34;28.60;99.90
41310;DHT22;27057;51.438;-0.010;2023-06-22T11:56:02;29.00;99.80
41310;DHT22;27057;51.438;-0.010;2023-06-22T11:58:29;29.30;99.90
41310;DHT22;27057;51.438;-0.010;2023-06-22T12:00:56;29.60;99.30
41310;DHT22;27057;51.438;-0.010;2023-06-22T12:03:24;29.90;99.00
41310;DHT22;27057;51.438;-0.010;2023-06-22T12:05:52;30.10;99.20
41310;DHT22;27057;51.438;-0.010;2023-06-22T12:08:19;30.40;98.40
41310;DHT22;27057;51.438;-0.010;2023-06-22T12:10:47;30.60;97.40
41310;DHT22;27057;51.438;-0.010;2023-06-22T12:13:15;30.60;98.20
41310;DHT22;27057;51.438;-0.010;2023-06-22T12:15:42;30.50;96.30
41310;DHT22;27057;51.438;-0.010;2023-06-22T12:18:10;30.40;98.30
41310;DHT22;27057;51.438;-0.010;2023-06-22T12:20:38;30.60;98.20
41310;DHT22;27057;51.438;-0.010;2023-06-22T12:23:05;30.80;97.40
41310;DHT22;27057;51.438;-0.010;2023-06-22T12:25:32;30.60;97.30
41310;DHT22;27057;51.438;-0.010;2023-06-22T12:28:00;30.20;97.00
41310;DHT22;27057;51.438;-0.010;2023-06-22T12:30:27;29.70;99.90
41310;DHT22;27057;51.438;-0.010;2023-06-22T12:32:55;29.50;97.80
41310;DHT22;27057;51.438;-0.010;2023-06-22T12:35:23;29.30;98.00
41310;DHT22;27057;51.438;-0.010;2023-06-22T12:37:50;29.00;98.20
41310;DHT22;27057;51.438;-0.010;2023-06-22T12:40:18;28.80;97.70
41310;DHT22;27057;51.438;-0.010;2023-06-22T12:42:45;29.00;98.50
41310;DHT22;27057;51.438;-0.010;2023-06-22T12:45:13;29.50;98.00
41310;DHT22;27057;51.438;-0.010;2023-06-22T12:47:40;30.10;98.00
41310;DHT22;27057;51.438;-0.010;2023-06-22T12:50:08;30.70;96.20
41310;DHT22;27057;51.438;-0.010;2023-06-22T12:52:37;31.20;97.30
41310;DHT22;27057;51.438;-0.010;2023-06-22T12:55:07;31.70;95.50
41310;DHT22;27057;51.438;-0.010;2023-06-22T12:57:34;31.60;95.00
41310;DHT22;27057;51.438;-0.010;2023-06-22T13:00:02;31.40;96.20
41310;DHT22;27057;51.438;-0.010;2023-06-22T13:02:31;31.00;93.40
41310;DHT22;27057;51.438;-0.010;2023-06-22T13:04:59;30.70;94.60
41310;DHT22;27057;51.438;-0.010;2023-06-22T13:07:26;30.60;95.10
41310;DHT22;27057;51.438;-0.010;2023-06-22T13:09:54;30.80;94.50
41310;DHT22;27057;51.438;-0.010;2023-06-22T13:12:21;31.20;93.90
41310;DHT22;27057;51.438;-0.010;2023-06-22T13:14:49;31.60;94.30
41310;DHT22;27057;51.438;-0.010;2023-06-22T13:17:16;32.00;94.30
41310;DHT22;27057;51.438;-0.010;2023-06-22T13:19:44;32.50;94.00
41310;DHT22;27057;51.438;-0.010;2023-06-22T13:22:34;32.10;93.70
41310;DHT22;27057;51.438;-0.010;2023-06-22T13:25:08;32.00;91.80
41310;DHT22;27057;51.438;-0.010;2023-06-22T13:27:40;31.50;93.90
41310;DHT22;27057;51.438;-0.010;2023-06-22T13:30:08;31.00;93.90
41310;DHT22;27057;51.438;-0.010;2023-06-22T13:32:40;30.70;93.90
41310;DHT22;27057;51.438;-0.010;2023-06-22T13:35:10;30.30;93.50
41310;DHT22;27057;51.438;-0.010;2023-06-22T13:37:38;30.00;94.30
41310;DHT22;27057;51.438;-0.010;2023-06-22T13:40:06;29.90;94.50
41310;DHT22;27057;51.438;-0.010;2023-06-22T13:42:34;29.90;94.30
41310;DHT22;27057;51.438;-0.010;2023-06-22T13:45:02;30.20;93.10
41310;DHT22;27057;51.438;-0.010;2023-06-22T13:47:30;30.70;93.70
41310;DHT22;27057;51.438;-0.010;2023-06-22T13:49:58;31.30;92.30
41310;DHT22;27057;51.438;-0.010;2023-06-22T13:52:26;31.90;92.70
41310;DHT22;27057;51.438;-0.010;2023-06-22T13:54:53;32.50;93.00
41310;DHT22;27057;51.438;-0.010;2023-06-22T13:57:21;33.10;92.70
41310;DHT22;27057;51.438;-0.010;2023-06-22T13:59:48;33.60;92.40
41310;DHT22;27057;51.438;-0.010;2023-06-22T14:02:16;34.10;91.90
41310;DHT22;27057;51.438;-0.010;2023-06-22T14:04:43;34.40;91.50
41310;DHT22;27057;51.438;-0.010;2023-06-22T14:07:10;34.50;91.30
41310;DHT22;27057;51.438;-0.010;2023-06-22T14:09:40;34.70;91.60
41310;DHT22;27057;51.438;-0.010;2023-06-22T14:12:08;34.30;91.10
41310;DHT22;27057;51.438;-0.010;2023-06-22T14:14:35;34.00;91.40
41310;DHT22;27057;51.438;-0.010;2023-06-22T14:17:03;33.50;91.20
41310;DHT22;27057;51.438;-0.010;2023-06-22T14:19:31;33.00;91.20
41310;DHT22;27057;51.438;-0.010;2023-06-22T14:21:59;32.50;91.10
41310;DHT22;27057;51.438;-0.010;2023-06-22T14:24:26;31.70;91.10
41310;DHT22;27057;51.438;-0.010;2023-06-22T14:26:57;31.70;91.20
41310;DHT22;27057;51.438;-0.010;2023-06-22T14:29:25;31.50;91.50
41310;DHT22;27057;51.438;-0.010;2023-06-22T14:31:52;32.00;91.90
41310;DHT22;27057;51.438;-0.010;2023-06-22T14:34:20;31.00;91.50
41310;DHT22;27057;51.438;-0.010;2023-06-22T14:36:47;30.80;91.80
41310;DHT22;27057;51.438;-0.010;2023-06-22T14:39:15;30.60;91.60
41310;DHT22;27057;51.438;-0.010;2023-06-22T14:41:43;30.80;91.50
41310;DHT22;27057;51.438;-0.010;2023-06-22T14:44:10;31.30;91.50
41310;DHT22;27057;51.438;-0.010;2023-06-22T14:46:37;32.20;90.30
41310;DHT22;27057;51.438;-0.010;2023-06-22T14:49:05;32.80;90.60
41310;DHT22;27057;51.438;-0.010;2023-06-22T14:51:32;33.50;87.60
41310;DHT22;27057;51.438;-0.010;2023-06-22T14:54:00;33.90;88.70
41310;DHT22;27057;51.438;-0.010;2023-06-22T14:56:27;34.50;87.90
41310;DHT22;27057;51.438;-0.010;2023-06-22T14:58:54;34.60;87.60
41310;DHT22;27057;51.438;-0.010;2023-06-22T15:01:22;34.70;87.30
41310;DHT22;27057;51.438;-0.010;2023-06-22T15:03:49;35.10;86.70
41310;DHT22;27057;51.438;-0.010;2023-06-22T15:06:17;35.40;86.40
41310;DHT22;27057;51.438;-0.010;2023-06-22T15:08:44;35.70;85.90
41310;DHT22;27057;51.438;-0.010;2023-06-22T15:11:12;35.40;84.40
41310;DHT22;27057;51.438;-0.010;2023-06-22T15:13:40;34.80;81.40
41310;DHT22;27057;51.438;-0.010;2023-06-22T15:16:08;34.10;83.80
41310;DHT22;27057;51.438;-0.010;2023-06-22T15:18:36;33.20;83.00
41310;DHT22;27057;51.438;-0.010;2023-06-22T15:21:04;32.60;81.40
41310;DHT22;27057;51.438;-0.010;2023-06-22T15:23:32;32.10;82.60
41310;DHT22;27057;51.438;-0.010;2023-06-22T15:26:02;31.60;82.60
41310;DHT22;27057;51.438;-0.010;2023-06-22T15:28:32;32.10;95.10
41310;DHT22;27057;51.438;-0.010;2023-06-22T15:31:00;32.40;82.30
41310;DHT22;27057;51.438;-0.010;2023-06-22T15:33:28;33.00;82.50
41310;DHT22;27057;51.438;-0.010;2023-06-22T15:35:56;33.60;79.20
41310;DHT22;27057;51.438;-0.010;2023-06-22T15:38:23;33.80;79.90
41310;DHT22;27057;51.438;-0.010;2023-06-22T15:40:50;34.00;80.80
41310;DHT22;27057;51.438;-0.010;2023-06-22T15:43:18;34.00;81.80
41310;DHT22;27057;51.438;-0.010;2023-06-22T15:45:47;34.10;80.80
41310;DHT22;27057;51.438;-0.010;2023-06-22T15:48:16;34.10;82.10
41310;DHT22;27057;51.438;-0.010;2023-06-22T15:50:43;33.90;82.10
41310;DHT22;27057;51.438;-0.010;2023-06-22T15:53:11;33.80;81.30
41310;DHT22;27057;51.438;-0.010;2023-06-22T15:55:38;34.00;81.20
41310;DHT22;27057;51.438;-0.010;2023-06-22T15:58:07;33.90;78.50
41310;DHT22;27057;51.438;-0.010;2023-06-22T16:00:36;33.80;80.40
41310;DHT22;27057;51.438;-0.010;2023-06-22T16:03:03;33.90;80.40
41310;DHT22;27057;51.438;-0.010;2023-06-22T16:05:31;34.10;79.90
41310;DHT22;27057;51.438;-0.010;2023-06-22T16:07:58;34.00;80.20
41310;DHT22;27057;51.438;-0.010;2023-06-22T16:10:26;32.90;94.10
41310;DHT22;27057;51.438;-0.010;2023-06-22T16:12:54;32.80;80.80
41310;DHT22;27057;51.438;-0.010;2023-06-22T16:15:21;32.30;81.60
41310;DHT22;27057;51.438;-0.010;2023-06-22T16:17:49;32.00;82.10
41310;DHT22;27057;51.438;-0.010;2023-06-22T16:20:16;32.10;83.00
41310;DHT22;27057;51.438;-0.010;2023-06-22T16:22:44;32.10;82.40
41310;DHT22;27057;51.438;-0.010;2023-06-22T16:25:13;32.70;82.80
41310;DHT22;27057;51.438;-0.010;2023-06-22T16:27:41;33.40;82.20
41310;DHT22;27057;51.438;-0.010;2023-06-22T16:30:09;34.00;80.90
41310;DHT22;27057;51.438;-0.010;2023-06-22T16:32:36;34.00;80.40
41310;DHT22;27057;51.438;-0.010;2023-06-22T16:35:04;33.80;81.10
41310;DHT22;27057;51.438;-0.010;2023-06-22T16:37:31;33.40;81.00
41310;DHT22;27057;51.438;-0.010;2023-06-22T16:39:59;33.00;81.80
41310;DHT22;27057;51.438;-0.010;2023-06-22T16:42:26;32.50;82.00
41310;DHT22;27057;51.438;-0.010;2023-06-22T16:44:53;32.40;86.30
41310;DHT22;27057;51.438;-0.010;2023-06-22T16:47:21;31.20;90.00
41310;DHT22;27057;51.438;-0.010;2023-06-22T16:49:49;30.50;91.40
41310;DHT22;27057;51.438;-0.010;2023-06-22T16:52:16;29.90;92.00
41310;DHT22;27057;51.438;-0.010;2023-06-22T16:54:45;29.50;92.50
41310;DHT22;27057;51.438;-0.010;2023-06-22T16:57:27;29.20;93.10
41310;DHT22;27057;51.438;-0.010;2023-06-22T16:59:54;28.80;92.80
41310;DHT22;27057;51.438;-0.010;2023-06-22T17:02:23;28.60;92.60
41310;DHT22;27057;51.438;-0.010;2023-06-22T17:04:54;28.20;91.60
41310;DHT22;27057;51.438;-0.010;2023-06-22T17:07:25;27.70;91.20
41310;DHT22;27057;51.438;-0.010;2023-06-22T17:09:54;27.70;91.40
41310;DHT22;27057;51.438;-0.010;2023-06-22T17:12:22;27.40;91.10
41310;DHT22;27057;51.438;-0.010;2023-06-22T17:14:52;27.30;90.80
41310;DHT22;27057;51.438;-0.010;2023-06-22T17:17:20;27.10;90.80
41310;DHT22;27057;51.438;-0.010;2023-06-22T17:19:51;26.30;90.30
41310;DHT22;27057;51.438;-0.010;2023-06-22T17:22:19;26.90;90.50
41310;DHT22;27057;51.438;-0.010;2023-06-22T17:24:47;27.00;90.70
41310;DHT22;27057;51.438;-0.010;2023-06-22T17:27:26;27.30;90.20
41310;DHT22;27057;51.438;-0.010;2023-06-22T17:30:07;27.90;89.10
41310;DHT22;27057;51.438;-0.010;2023-06-22T17:32:35;28.00;87.80
41310;DHT22;27057;51.438;-0.010;2023-06-22T17:35:04;27.70;88.70
41310;DHT22;27057;51.438;-0.010;2023-06-22T17:37:47;27.50;88.30
41310;DHT22;27057;51.438;-0.010;2023-06-22T17:40:19;27.40;89.60
41310;DHT22;27057;51.438;-0.010;2023-06-22T17:42:47;27.10;90.40
41310;DHT22;27057;51.438;-0.010;2023-06-22T17:45:19;27.50;91.20
41310;DHT22;27057;51.438;-0.010;2023-06-22T17:47:47;26.70;91.20
41310;DHT22;27057;51.438;-0.010;2023-06-22T17:50:15;26.60;91.70
41310;DHT22;27057;51.438;-0.010;2023-06-22T17:52:54;26.30;92.20
41310;DHT22;27057;51.438;-0.010;2023-06-22T17:55:23;26.10;92.70
41310;DHT22;27057;51.438;-0.010;2023-06-22T17:57:58;25.90;92.70
41310;DHT22;27057;51.438;-0.010;2023-06-22T18:00:26;25.90;92.80
41310;DHT22;27057;51.438;-0.010;2023-06-22T18:02:55;25.80;92.80
41310;DHT22;27057;51.438;-0.010;2023-06-22T18:05:34;25.80;92.80
41310;DHT22;27057;51.438;-0.010;2023-06-22T18:08:03;25.70;93.10
41310;DHT22;27057;51.438;-0.010;2023-06-22T18:10:33;25.70;93.10
41310;DHT22;27057;51.438;-0.010;2023-06-22T18:13:02;25.70;93.10
41310;DHT22;27057;51.438;-0.010;2023-06-22T18:15:33;25.60;93.20
41310;DHT22;27057;51.438;-0.010;2023-06-22T18:18:02;25.40;93.20
41310;DHT22;27057;51.438;-0.010;2023-06-22T18:20:31;25.50;93.40
41310;DHT22;27057;51.438;-0.010;2023-06-22T18:23:00;25.40;93.70
41310;DHT22;27057;51.438;-0.010;2023-06-22T18:25:31;25.40;94.50
41310;DHT22;27057;51.438;-0.010;2023-06-22T18:28:01;25.30;94.70
41310;DHT22;27057;51.438;-0.010;2023-06-22T18:30:29;25.20;94.80
41310;DHT22;27057;51.438;-0.010;2023-06-22T18:32:56;25.40;99.90
41310;DHT22;27057;51.438;-0.010;2023-06-22T18:35:25;25.20;95.20
41310;DHT22;27057;51.438;-0.010;2023-06-22T18:37:53;25.20;96.50
41310;DHT22;27057;51.438;-0.010;2023-06-22T18:40:21;25.00;97.50
41310;DHT22;27057;51.438;-0.010;2023-06-22T18:42:48;24.90;98.20
41310;DHT22;27057;51.438;-0.010;2023-06-22T18:45:26;24.70;99.30
41310;DHT22;27057;51.438;-0.010;2023-06-22T18:50:37;26.50;99.90
41310;DHT22;27057;51.438;-0.010;2023-06-22T18:53:05;25.00;99.50
41310;DHT22;27057;51.438;-0.010;2023-06-22T18:55:40;25.00;99.10
41310;DHT22;27057;51.438;-0.010;2023-06-22T18:58:32;25.50;99.80
41310;DHT22;27057;51.438;-0.010;2023-06-22T19:01:21;24.70;99.80
41310;DHT22;27057;51.438;-0.010;2023-06-22T19:03:56;24.60;99.90
41310;DHT22;27057;51.438;-0.010;2023-06-22T19:09:19;24.30;99.90
41310;DHT22;27057;51.438;-0.010;2023-06-22T19:11:48;24.10;99.90
41310;DHT22;27057;51.438;-0.010;2023-06-22T19:14:19;24.00;99.70
41310;DHT22;27057;51.438;-0.010;2023-06-22T19:16:48;23.80;99.90
41310;DHT22;27057;51.438;-0.010;2023-06-22T19:19:23;24.00;98.10
41310;DHT22;27057;51.438;-0.010;2023-06-22T19:21:58;23.70;97.60
41310;DHT22;27057;51.438;-0.010;2023-06-22T19:24:28;23.70;96.50
41310;DHT22;27057;51.438;-0.010;2023-06-22T19:26:57;23.80;96.70
41310;DHT22;27057;51.438;-0.010;2023-06-22T19:29:26;23.90;96.80
41310;DHT22;27057;51.438;-0.010;2023-06-22T19:31:55;24.10;96.50
41310;DHT22;27057;51.438;-0.010;2023-06-22T19:34:23;24.20;96.00
41310;DHT22;27057;51.438;-0.010;2023-06-22T19:36:52;24.20;95.90
41310;DHT22;27057;51.438;-0.010;2023-06-22T19:39:19;24.00;96.00
41310;DHT22;27057;51.438;-0.010;2023-06-22T19:41:47;24.00;95.90
41310;DHT22;27057;51.438;-0.010;2023-06-22T19:44:15;24.00;96.30
41310;DHT22;27057;51.438;-0.010;2023-06-22T19:46:42;24.00;96.30
41310;DHT22;27057;51.438;-0.010;2023-06-22T19:49:15;24.10;96.30
41310;DHT22;27057;51.438;-0.010;2023-06-22T19:51:43;24.10;96.20
41310;DHT22;27057;51.438;-0.010;2023-06-22T19:54:10;23.90;96.30
41310;DHT22;27057;51.438;-0.010;2023-06-22T19:56:39;23.90;96.40
41310;DHT22;27057;51.438;-0.010;2023-06-22T19:59:14;23.80;96.60
41310;DHT22;27057;51.438;-0.010;2023-06-22T20:01:43;23.80;99.90
41310;DHT22;27057;51.438;-0.010;2023-06-22T20:04:14;23.50;97.10
41310;DHT22;27057;51.438;-0.010;2023-06-22T20:07:02;23.40;97.40
41310;DHT22;27057;51.438;-0.010;2023-06-22T20:09:30;23.20;98.20
41310;DHT22;27057;51.438;-0.010;2023-06-22T20:11:58;23.20;98.10
41310;DHT22;27057;51.438;-0.010;2023-06-22T20:14:34;23.00;99.00
41310;DHT22;27057;51.438;-0.010;2023-06-22T20:17:04;22.90;99.20
41310;DHT22;27057;51.438;-0.010;2023-06-22T20:19:36;22.90;99.00
41310;DHT22;27057;51.438;-0.010;2023-06-22T20:22:06;22.80;99.70
41310;DHT22;27057;51.438;-0.010;2023-06-22T20:24:34;22.80;99.20
41310;DHT22;27057;51.438;-0.010;2023-06-22T20:27:01;22.70;99.80
41310;DHT22;27057;51.438;-0.010;2023-06-22T20:29:32;22.70;99.90
41310;DHT22;27057;51.438;-0.010;2023-06-22T20:32:09;22.50;99.90
41310;DHT22;27057;51.438;-0.010;2023-06-22T20:34:44;22.20;99.90
41310;DHT22;27057;51.438;-0.010;2023-06-22T20:37:17;22.40;99.90
41310;DHT22;27057;51.438;-0.010;2023-06-22T20:39:48;22.20;99.90
41310;DHT22;27057;51.438;-0.010;2023-06-22T20:42:16;22.30;99.90
41310;DHT22;27057;51.438;-0.010;2023-06-22T20:44:45;22.20;99.90
41310;DHT22;27057;51.438;-0.010;2023-06-22T20:47:18;22.10;99.90
41310;DHT22;27057;51.438;-0.010;2023-06-22T20:49:48;21.90;99.10
41310;DHT22;27057;51.438;-0.010;2023-06-22T20:52:17;21.80;99.30
41310;DHT22;27057;51.438;-0.010;2023-06-22T20:57:12;21.70;98.80
41310;DHT22;27057;51.438;-0.010;2023-06-22T20:59:40;21.70;99.40
41310;DHT22;27057;51.438;-0.010;2023-06-22T21:02:08;21.60;99.40
41310;DHT22;27057;51.438;-0.010;2023-06-22T21:04:35;21.50;99.50
41310;DHT22;27057;51.438;-0.010;2023-06-22T21:07:04;21.50;99.50
41310;DHT22;27057;51.438;-0.010;2023-06-22T21:09:32;22.00;99.90
41310;DHT22;27057;51.438;-0.010;2023-06-22T21:12:18;21.40;99.70
41310;DHT22;27057;51.438;-0.010;2023-06-22T21:14:45;21.40;99.90
41310;DHT22;27057;51.438;-0.010;2023-06-22T21:17:13;21.30;99.90
41310;DHT22;27057;51.438;-0.010;2023-06-22T21:19:40;20.80;99.90
41310;DHT22;27057;51.438;-0.010;2023-06-22T21:24:35;21.20;99.90
41310;DHT22;27057;51.438;-0.010;2023-06-22T21:27:03;21.10;99.90
41310;DHT22;27057;51.438;-0.010;2023-06-22T21:29:30;20.70;99.90
41310;DHT22;27057;51.438;-0.010;2023-06-22T21:31:58;21.60;99.90
41310;DHT22;27057;51.438;-0.010;2023-06-22T21:34:25;21.00;99.90
41310;DHT22;27057;51.438;-0.010;2023-06-22T21:36:54;21.00;99.90
41310;DHT22;27057;51.438;-0.010;2023-06-22T21:41:49;20.80;99.90
41310;DHT22;27057;51.438;-0.010;2023-06-22T21:44:17;20.80;99.90
41310;DHT22;27057;51.438;-0.010;2023-06-22T21:46:44;20.80;99.90
41310;DHT22;27057;51.438;-0.010;2023-06-22T21:49:12;20.80;99.90
41310;DHT22;27057;51.438;-0.010;2023-06-22T21:51:39;20.80;99.90
41310;DHT22;27057;51.438;-0.010;2023-06-22T21:54:06;20.80;99.90
41310;DHT22;27057;51.438;-0.010;2023-06-22T21:56:34;20.80;99.90
41310;DHT22;27057;51.438;-0.010;2023-06-22T21:59:02;20.80;99.90
41310;DHT22;27057;51.438;-0.010;2023-06-22T22:01:29;20.90;99.90
41310;DHT22;27057;51.438;-0.010;2023-06-22T22:03:57;20.90;99.90
41310;DHT22;27057;51.438;-0.010;2023-06-22T22:06:24;20.90;99.90
41310;DHT22;27057;51.438;-0.010;2023-06-22T22:08:55;21.20;99.90
41310;DHT22;27057;51.438;-0.010;2023-06-22T22:11:23;20.90;99.90
41310;DHT22;27057;51.438;-0.010;2023-06-22T22:13:50;20.90;99.90
41310;DHT22;27057;51.438;-0.010;2023-06-22T22:16:18;20.70;99.90
41310;DHT22;27057;51.438;-0.010;2023-06-22T22:18:46;21.30;99.90
41310;DHT22;27057;51.438;-0.010;2023-06-22T22:21:14;20.80;99.90
41310;DHT22;27057;51.438;-0.010;2023-06-22T22:23:41;20.80;99.90
41310;DHT22;27057;51.438;-0.010;2023-06-22T22:26:09;20.60;99.90
41310;DHT22;27057;51.438;-0.010;2023-06-22T22:28:36;20.80;99.90
41310;DHT22;27057;51.438;-0.010;2023-06-22T22:31:04;20.50;99.90
41310;DHT22;27057;51.438;-0.010;2023-06-22T22:33:31;20.70;99.90
41310;DHT22;27057;51.438;-0.010;2023-06-22T22:35:58;20.70;99.90
41310;DHT22;27057;51.438;-0.010;2023-06-22T22:38:26;20.60;99.90
41310;DHT22;27057;51.438;-0.010;2023-06-22T22:40:54;20.60;99.90
41310;DHT22;27057;51.438;-0.010;2023-06-22T22:43:21;20.60;99.90
41310;DHT22;27057;51.438;-0.010;2023-06-22T22:45:48;20.40;99.90
41310;DHT22;27057;51.438;-0.010;2023-06-22T22:48:16;20.40;99.90
41310;DHT22;27057;51.438;-0.010;2023-06-22T22:50:44;20.30;99.90
41310;DHT22;27057;51.438;-0.010;2023-06-22T22:53:14;20.30;99.90
41310;DHT22;27057;51.438;-0.010;2023-06-22T22:55:44;20.20;99.90
41310;DHT22;27057;51.438;-0.010;2023-06-22T22:58:11;20.20;99.90
41310;DHT22;27057;51.438;-0.010;2023-06-22T23:00:39;20.10;99.90
41310;DHT22;27057;51.438;-0.010;2023-06-22T23:03:06;20.10;99.90
41310;DHT22;27057;51.438;-0.010;2023-06-22T23:05:34;20.10;99.90
41310;DHT22;27057;51.438;-0.010;2023-06-22T23:08:01;20.10;99.90
41310;DHT22;27057;51.438;-0.010;2023-06-22T23:10:30;20.10;99.90
41310;DHT22;27057;51.438;-0.010;2023-06-22T23:12:58;20.10;99.90
41310;DHT22;27057;51.438;-0.010;2023-06-22T23:15:25;20.10;99.90
41310;DHT22;27057;51.438;-0.010;2023-06-22T23:17:52;19.70;99.90
41310;DHT22;27057;51.438;-0.010;2023-06-22T23:20:20;20.10;99.90
41310;DHT22;27057;51.438;-0.010;2023-06-22T23:22:54;19.90;99.90
41310;DHT22;27057;51.438;-0.010;2023-06-22T23:25:25;20.30;99.90
41310;DHT22;27057;51.438;-0.010;2023-06-22T23:27:53;20.10;99.90
41310;DHT22;27057;51.438;-0.010;2023-06-22T23:30:21;20.20;99.90
41310;DHT22;27057;51.438;-0.010;2023-06-22T23:32:48;20.10;99.90
41310;DHT22;27057;51.438;-0.010;2023-06-22T23:35:16;20.10;99.90
41310;DHT22;27057;51.438;-0.010;2023-06-22T23:37:43;20.20;99.90
41310;DHT22;27057;51.438;-0.010;2023-06-22T23:40:14;20.10;99.90
41310;DHT22;27057;51.438;-0.010;2023-06-22T23:42:48;20.10;99.90
41310;DHT22;27057;51.438;-0.010;2023-06-22T23:45:19;20.10;99.90
41310;DHT22;27057;51.438;-0.010;2023-06-22T23:47:50;20.00;99.90
41310;DHT22;27057;51.438;-0.010;2023-06-22T23:50:17;19.90;99.90
41310;DHT22;27057;51.438;-0.010;2023-06-22T23:52:46;20.00;99.90
41310;DHT22;27057;51.438;-0.010;2023-06-22T23:55:17;20.00;99.90
41310;DHT22;27057;51.438;-0.010;2023-06-22T23:57:45;20.20;99.90
